Time;durP1;ratioP1;P1;durP2;ratioP2;P2;SDS_P1;SDS_P2;PMS_P1;PMS_P2;Temp;Humidity;BMP_temperature;BMP_pressure;BME280_temperature;BME280_humidity;BME280_pressure;Samples;Min_cycle;Max_cycle;Signal;HPM_P1;HPM_P2
2024/01/05 00:02:09;;;;;;;12.77;2.63;;;7.50;99.90;;;;;;5095454;28;20178;-77
2024/01/05 00:04:34;;;;;;;17.07;3.10;;;7.50;99.90;;;;;;5095972;28;20255;-77
2024/01/05 00:07:00;;;;;;;14.27;3.17;;;7.50;99.90;;;;;;5091867;28;20187;-77
2024/01/05 00:09:25;;;;;;;14.73;3.53;;;7.50;99.90;;;;;;5097203;28;20195;-77
2024/01/05 00:11:51;;;;;;;11.37;3.17;;;7.50;99.90;;;;;;5098528;28;20217;-77
2024/01/05 00:14:17;;;;;;;12.93;2.73;;;7.50;99.90;;;;;;5095688;28;20205;-77
2024/01/05 00:16:43;;;;;;;11.93;2.53;;;7.50;99.90;;;;;;5092826;28;20179;-79
2024/01/05 00:19:09;;;;;;;16.00;2.73;;;7.60;99.90;;;;;;5094965;28;20170;-77
2024/01/05 00:21:35;;;;;;;14.23;2.50;;;7.50;99.90;;;;;;5112238;27;20173;-76
2024/01/05 00:24:00;;;;;;;19.47;2.90;;;7.60;99.90;;;;;;5096549;28;20573;-77
2024/01/05 00:26:26;;;;;;;11.47;2.70;;;7.60;99.90;;;;;;5096036;28;20194;-78
2024/01/05 00:28:51;;;;;;;20.20;3.03;;;7.60;99.90;;;;;;5116088;28;20228;-77
2024/01/05 00:31:17;;;;;;;27.30;3.70;;;7.60;99.90;;;;;;5085076;28;20179;-77
2024/01/05 00:33:44;;;;;;;14.17;3.20;;;7.60;99.90;;;;;;5077444;28;20376;-77
2024/01/05 00:36:10;;;;;;;14.73;3.00;;;7.60;99.90;;;;;;5076651;28;20186;-77
2024/01/05 00:38:36;;;;;;;13.60;2.83;;;7.60;99.90;;;;;;5084391;28;20190;-77
2024/01/05 00:41:03;;;;;;;19.60;2.80;;;7.60;99.90;;;;;;5076321;28;20186;-76
2024/01/05 00:43:28;;;;;;;19.33;3.93;;;7.60;99.90;;;;;;5075923;28;20187;-77
2024/01/05 00:45:55;;;;;;;15.90;2.80;;;7.60;99.90;;;;;;5087047;28;20178;-78
2024/01/05 00:48:21;;;;;;;18.57;2.23;;;7.60;99.90;;;;;;5094533;28;20185;-77
2024/01/05 00:50:46;;;;;;;19.90;2.80;;;7.60;99.90;;;;;;5094948;28;20171;-77
2024/01/05 00:53:12;;;;;;;12.93;2.70;;;7.60;99.90;;;;;;5108823;28;20705;-77
2024/01/05 00:55:37;;;;;;;20.27;3.13;;;7.70;99.90;;;;;;5095091;28;20227;-77
2024/01/05 00:58:04;;;;;;;12.27;2.80;;;7.70;99.90;;;;;;5084946;28;20182;-78
2024/01/05 01:00:29;;;;;;;15.30;2.63;;;7.60;99.90;;;;;;5090111;28;20178;-78
2024/01/05 01:02:55;;;;;;;13.90;2.87;;;7.70;99.90;;;;;;5079365;28;20264;-77
2024/01/05 01:05:21;;;;;;;18.73;2.37;;;7.70;99.90;;;;;;5081441;28;20202;-77
2024/01/05 01:07:47;;;;;;;9.40;2.97;;;7.60;99.90;;;;;;5081765;28;20178;-76
2024/01/05 01:10:12;;;;;;;14.87;3.00;;;7.60;99.90;;;;;;5075615;28;20170;-79
2024/01/05 01:12:38;;;;;;;12.70;2.30;;;7.60;99.90;;;;;;5086028;28;20192;-78
2024/01/05 01:15:04;;;;;;;18.00;2.73;;;7.60;99.90;;;;;;5096578;28;20666;-77
2024/01/05 01:17:30;;;;;;;16.50;3.47;;;7.60;99.90;;;;;;5090524;28;20265;-76
2024/01/05 01:19:56;;;;;;;17.07;2.67;;;7.60;99.90;;;;;;5092282;28;20182;-77
2024/01/05 01:22:22;;;;;;;12.20;2.47;;;7.60;99.90;;;;;;5093081;28;20633;-77
2024/01/05 01:24:47;;;;;;;13.67;2.90;;;7.50;99.90;;;;;;5102811;28;20193;-77
2024/01/05 01:27:16;;;;;;;17.57;3.03;;;7.50;99.90;;;;;;5093047;28;20203;-76
2024/01/05 01:29:42;;;;;;;17.13;2.40;;;7.60;99.90;;;;;;5094746;28;20592;-76
2024/01/05 01:32:09;;;;;;;12.23;2.87;;;7.50;99.90;;;;;;5088109;28;20602;-76
2024/01/05 01:34:35;;;;;;;11.30;2.67;;;7.50;99.90;;;;;;5081202;28;20198;-77
2024/01/05 01:37:02;;;;;;;12.33;2.67;;;7.60;99.90;;;;;;5093176;28;20598;-77
2024/01/05 01:39:28;;;;;;;14.90;2.93;;;7.50;99.90;;;;;;5099780;28;20181;-77
2024/01/05 01:41:53;;;;;;;19.53;3.20;;;7.60;99.90;;;;;;5094568;28;20171;-78
2024/01/05 01:44:19;;;;;;;9.77;2.17;;;7.50;99.90;;;;;;5090097;28;20225;-77
2024/01/05 01:46:44;;;;;;;15.27;2.53;;;7.50;99.90;;;;;;5089813;28;20177;-78
2024/01/05 01:49:10;;;;;;;22.90;3.63;;;7.50;99.90;;;;;;5096241;28;20174;-79
2024/01/05 01:51:36;;;;;;;12.53;2.87;;;7.50;99.90;;;;;;5093372;28;20719;-76
2024/01/05 01:54:05;;;;;;;14.43;2.60;;;7.50;99.90;;;;;;5094680;28;20225;-78
2024/01/05 01:56:33;;;;;;;20.37;3.27;;;7.50;99.90;;;;;;5094948;28;20231;-77
2024/01/05 01:58:58;;;;;;;15.87;2.83;;;7.40;99.90;;;;;;5093491;28;20193;-77
2024/01/05 02:01:24;;;;;;;15.13;2.40;;;7.40;99.90;;;;;;5094741;28;20655;-77
2024/01/05 02:03:50;;;;;;;12.90;2.60;;;7.40;99.90;;;;;;5093447;28;20297;-78
2024/01/05 02:06:16;;;;;;;10.77;2.43;;;7.40;99.90;;;;;;5095043;28;20170;-78
2024/01/05 02:08:43;;;;;;;19.40;3.73;;;7.40;99.90;;;;;;5115735;27;20171;-78
2024/01/05 02:11:09;;;;;;;13.90;2.60;;;7.40;99.90;;;;;;5094895;28;20189;-78
2024/01/05 02:13:34;;;;;;;13.67;2.77;;;7.40;99.90;;;;;;5095007;28;20178;-78
2024/01/05 02:16:00;;;;;;;14.20;2.27;;;7.40;99.90;;;;;;5092215;28;20182;-78
2024/01/05 02:18:25;;;;;;;20.40;2.90;;;7.40;99.90;;;;;;5094472;28;20641;-77
2024/01/05 02:20:51;;;;;;;12.00;2.50;;;7.30;99.90;;;;;;5093604;28;20170;-77
2024/01/05 02:23:25;;;;;;;15.73;3.23;;;7.40;99.90;;;;;;5093862;28;20516;-77
2024/01/05 02:25:51;;;;;;;12.40;2.50;;;7.30;99.90;;;;;;5095293;28;20677;-77
2024/01/05 02:28:20;;;;;;;14.30;2.57;;;7.30;99.90;;;;;;5093211;28;20184;-77
2024/01/05 02:30:46;;;;;;;18.27;2.67;;;7.20;99.90;;;;;;5094677;28;20174;-78
2024/01/05 02:33:11;;;;;;;12.67;2.87;;;7.20;99.90;;;;;;5094691;28;20193;-78
2024/01/05 02:35:37;;;;;;;8.73;2.27;;;7.40;99.90;;;;;;5094989;28;20220;-78
2024/01/05 02:38:03;;;;;;;14.23;2.73;;;7.20;99.90;;;;;;5095381;28;20182;-77
2024/01/05 02:40:28;;;;;;;15.53;2.43;;;7.20;99.90;;;;;;5093301;28;20289;-78
2024/01/05 02:42:54;;;;;;;15.20;2.80;;;7.10;99.90;;;;;;5101894;28;20204;-77
2024/01/05 02:45:21;;;;;;;12.17;2.23;;;7.10;99.90;;;;;;5108060;28;20636;-78
2024/01/05 02:47:55;;;;;;;16.27;2.67;;;7.20;99.90;;;;;;5093946;28;20175;-78
2024/01/05 02:50:21;;;;;;;10.40;2.33;;;7.10;99.90;;;;;;5092705;28;20548;-77
2024/01/05 02:52:47;;;;;;;16.43;2.60;;;7.10;99.90;;;;;;5082264;28;20182;-78
2024/01/05 02:55:13;;;;;;;16.60;2.60;;;7.10;99.90;;;;;;5092963;28;20197;-78
2024/01/05 02:57:39;;;;;;;15.57;2.60;;;7.10;99.90;;;;;;5092795;28;20178;-78
2024/01/05 03:00:06;;;;;;;19.90;3.40;;;7.00;99.90;;;;;;5091789;28;20185;-78
2024/01/05 03:02:31;;;;;;;10.07;2.40;;;7.00;99.90;;;;;;5075185;28;20685;-77
2024/01/05 03:04:58;;;;;;;15.50;2.30;;;7.00;99.90;;;;;;5093035;28;20194;-77
2024/01/05 03:07:23;;;;;;;13.73;2.47;;;7.00;99.90;;;;;;5093475;28;20585;-77
2024/01/05 03:09:49;;;;;;;10.67;2.63;;;7.00;99.90;;;;;;5094105;28;20178;-78
2024/01/05 03:12:16;;;;;;;17.17;2.73;;;7.00;99.90;;;;;;5092875;28;20212;-78
2024/01/05 03:14:41;;;;;;;12.17;2.70;;;6.90;99.90;;;;;;5094083;28;20317;-77
2024/01/05 03:17:07;;;;;;;12.63;2.27;;;7.00;99.90;;;;;;5093552;28;20261;-78
2024/01/05 03:19:32;;;;;;;11.60;2.33;;;7.00;99.90;;;;;;5093956;28;20166;-78
2024/01/05 03:21:58;;;;;;;12.37;2.33;;;6.90;99.90;;;;;;5093915;28;20166;-78
2024/01/05 03:24:24;;;;;;;10.93;1.97;;;6.90;99.90;;;;;;5093198;28;20213;-78
2024/01/05 03:26:49;;;;;;;11.00;1.90;;;6.90;99.90;;;;;;5092470;28;20166;-78
2024/01/05 03:29:15;;;;;;;9.63;2.20;;;6.90;99.90;;;;;;5092110;28;20174;-77
2024/01/05 03:31:43;;;;;;;12.83;2.57;;;6.90;99.90;;;;;;5091397;28;20178;-78
2024/01/05 03:34:09;;;;;;;14.17;2.50;;;6.90;99.90;;;;;;5093383;28;20224;-78
2024/01/05 03:36:34;;;;;;;13.23;2.70;;;6.90;99.90;;;;;;5093309;28;20178;-78
2024/01/05 03:39:00;;;;;;;8.07;2.33;;;6.90;99.90;;;;;;5091992;28;20667;-79
2024/01/05 03:41:26;;;;;;;12.17;2.10;;;6.90;99.90;;;;;;5092789;28;20193;-78
2024/01/05 03:43:52;;;;;;;8.50;2.87;;;6.90;99.90;;;;;;5093447;28;20198;-77
2024/01/05 03:46:17;;;;;;;13.33;2.63;;;6.90;99.90;;;;;;5093307;28;20243;-78
2024/01/05 03:48:43;;;;;;;10.37;2.00;;;6.90;99.90;;;;;;5093475;28;20237;-77
2024/01/05 03:51:08;;;;;;;15.40;2.27;;;6.90;99.90;;;;;;5093035;28;20173;-78
2024/01/05 03:53:34;;;;;;;18.53;2.57;;;6.90;99.90;;;;;;5093251;28;20186;-78
2024/01/05 03:56:00;;;;;;;10.73;2.37;;;6.90;99.90;;;;;;5092870;28;20665;-77
2024/01/05 03:58:28;;;;;;;12.70;2.47;;;6.90;99.90;;;;;;5092855;28;20650;-77
2024/01/05 04:00:53;;;;;;;13.10;2.43;;;6.90;99.90;;;;;;5093112;28;20163;-78
2024/01/05 04:03:19;;;;;;;12.07;2.40;;;7.00;99.90;;;;;;5091391;28;20197;-77
2024/01/05 04:05:45;;;;;;;13.83;2.60;;;7.00;99.90;;;;;;5091250;28;20622;-78
2024/01/05 04:08:11;;;;;;;10.77;2.20;;;7.10;99.90;;;;;;5092404;28;20186;-78
2024/01/05 04:10:37;;;;;;;10.40;2.47;;;7.10;99.90;;;;;;5092549;28;20545;-78
2024/01/05 04:13:03;;;;;;;10.80;2.40;;;7.10;99.90;;;;;;5091276;28;20178;-78
2024/01/05 04:15:29;;;;;;;14.97;2.57;;;7.20;99.90;;;;;;5093000;28;20644;-78
2024/01/05 04:17:54;;;;;;;19.50;2.33;;;7.20;99.90;;;;;;5092772;28;20301;-78
2024/01/05 04:20:20;;;;;;;13.17;2.20;;;7.20;99.90;;;;;;5093131;28;20175;-79
2024/01/05 04:22:45;;;;;;;11.40;2.10;;;7.30;99.90;;;;;;5099289;28;20201;-78
2024/01/05 04:25:11;;;;;;;12.30;2.00;;;7.30;99.90;;;;;;5106374;28;20247;-78
2024/01/05 04:27:38;;;;;;;8.50;2.30;;;7.30;99.90;;;;;;5092814;28;20179;-79
2024/01/05 04:30:04;;;;;;;14.93;2.47;;;7.30;99.90;;;;;;5092322;28;20272;-77
2024/01/05 04:32:30;;;;;;;12.10;2.53;;;7.40;99.90;;;;;;5085448;28;20228;-78
2024/01/05 04:34:56;;;;;;;10.60;2.13;;;7.40;99.90;;;;;;5091255;28;20526;-78
2024/01/05 04:37:21;;;;;;;11.57;2.30;;;7.40;99.90;;;;;;5091552;28;20191;-78
2024/01/05 04:39:47;;;;;;;12.40;2.60;;;7.40;99.90;;;;;;5099720;28;20178;-78
2024/01/05 04:42:12;;;;;;;13.00;2.70;;;7.40;99.90;;;;;;5099288;28;20261;-78
2024/01/05 04:44:38;;;;;;;13.23;2.47;;;7.50;99.90;;;;;;5096752;28;20665;-78
2024/01/05 04:47:04;;;;;;;11.63;2.87;;;7.50;99.90;;;;;;5096763;28;20174;-77
2024/01/05 04:49:31;;;;;;;13.77;2.73;;;7.50;99.90;;;;;;5099674;28;20223;-78
2024/01/05 04:51:57;;;;;;;13.77;2.33;;;7.50;99.90;;;;;;5100302;28;20216;-78
2024/01/05 04:54:23;;;;;;;11.47;2.47;;;7.50;99.90;;;;;;5099504;28;20205;-78
2024/01/05 04:56:49;;;;;;;13.53;3.13;;;7.50;99.90;;;;;;5096639;28;20182;-78
2024/01/05 04:59:14;;;;;;;6.57;1.90;;;7.50;99.90;;;;;;5096121;28;20208;-78
2024/01/05 05:01:40;;;;;;;13.87;2.67;;;7.50;99.90;;;;;;5098035;28;20190;-78
2024/01/05 05:04:05;;;;;;;10.97;2.60;;;7.60;99.90;;;;;;5094915;28;20274;-78
2024/01/05 05:06:31;;;;;;;8.33;2.20;;;7.60;99.90;;;;;;5096328;28;20175;-78
2024/01/05 05:08:56;;;;;;;13.20;2.60;;;7.60;99.90;;;;;;5093497;28;20178;-78
2024/01/05 05:11:22;;;;;;;7.37;2.03;;;7.60;99.90;;;;;;5094040;28;20174;-78
2024/01/05 05:13:48;;;;;;;11.30;2.33;;;7.60;99.90;;;;;;5094197;28;20212;-77
2024/01/05 05:16:13;;;;;;;12.13;2.40;;;7.60;99.90;;;;;;5094592;28;20231;-78
2024/01/05 05:18:39;;;;;;;11.23;2.17;;;7.60;99.90;;;;;;5095316;28;20189;-78
2024/01/05 05:21:05;;;;;;;9.40;1.90;;;7.60;99.90;;;;;;5095279;28;20247;-78
2024/01/05 05:23:30;;;;;;;8.47;2.47;;;7.60;99.90;;;;;;5095515;28;20328;-77
2024/01/05 05:25:57;;;;;;;9.90;2.67;;;7.60;99.90;;;;;;5094617;28;20182;-78
2024/01/05 05:28:23;;;;;;;8.50;2.10;;;7.60;99.90;;;;;;5093410;28;20174;-78
2024/01/05 05:30:49;;;;;;;8.57;2.30;;;7.60;99.90;;;;;;5095591;28;20634;-78
2024/01/05 05:33:14;;;;;;;14.27;2.40;;;7.60;99.90;;;;;;5095573;28;20281;-78
2024/01/05 05:35:40;;;;;;;9.70;2.30;;;7.60;99.90;;;;;;5093780;28;20237;-78
2024/01/05 05:38:06;;;;;;;7.43;2.00;;;7.60;99.90;;;;;;5113998;28;20711;-78
2024/01/05 05:40:32;;;;;;;10.97;2.30;;;7.60;99.90;;;;;;5115679;28;20170;-78
2024/01/05 05:42:57;;;;;;;8.80;1.90;;;7.50;99.90;;;;;;5086936;28;20633;-78
2024/01/05 05:45:23;;;;;;;9.07;2.07;;;7.50;99.90;;;;;;5094974;28;20198;-78
2024/01/05 05:47:50;;;;;;;6.87;1.87;;;7.50;99.90;;;;;;5095676;28;20178;-77
2024/01/05 05:50:15;;;;;;;7.80;2.07;;;7.40;99.90;;;;;;5093365;28;20407;-78
2024/01/05 05:52:43;;;;;;;11.43;2.50;;;7.40;99.90;;;;;;5095708;28;20178;-78
2024/01/05 05:55:12;;;;;;;11.13;2.30;;;7.80;99.90;;;;;;5096132;28;20229;-78
2024/01/05 05:57:40;;;;;;;12.47;2.33;;;7.40;99.90;;;;;;5094409;28;20174;-78
2024/01/05 06:00:06;;;;;;;9.67;1.80;;;7.40;99.90;;;;;;5094594;28;20328;-77
2024/01/05 06:02:32;;;;;;;9.33;2.40;;;7.40;99.90;;;;;;5093557;28;20202;-78
2024/01/05 06:04:58;;;;;;;14.57;2.53;;;7.40;99.90;;;;;;5094876;28;20536;-78
2024/01/05 06:07:24;;;;;;;8.07;1.73;;;7.30;99.90;;;;;;5091715;28;20475;-77
2024/01/05 06:09:50;;;;;;;6.07;2.20;;;7.30;99.90;;;;;;5094921;28;20179;-79
2024/01/05 06:12:15;;;;;;;8.90;2.17;;;7.30;99.90;;;;;;5095390;28;20642;-77
2024/01/05 06:14:41;;;;;;;6.97;1.90;;;7.30;99.90;;;;;;5094454;28;20205;-78
2024/01/05 06:17:06;;;;;;;9.63;2.07;;;7.30;99.90;;;;;;5094188;28;20653;-77
2024/01/05 06:19:32;;;;;;;7.77;2.13;;;7.30;99.90;;;;;;5095267;28;20166;-78
2024/01/05 06:21:59;;;;;;;6.97;1.80;;;7.30;99.90;;;;;;5094218;28;20215;-78
2024/01/05 06:24:25;;;;;;;11.60;2.20;;;7.30;99.90;;;;;;5092860;28;20229;-78
2024/01/05 06:26:51;;;;;;;11.90;2.20;;;7.30;99.90;;;;;;5092218;28;20258;-77
2024/01/05 06:29:17;;;;;;;9.23;2.30;;;7.30;99.90;;;;;;5092861;28;20658;-78
2024/01/05 06:31:43;;;;;;;9.47;2.33;;;7.30;99.90;;;;;;5094031;28;20543;-77
2024/01/05 06:34:08;;;;;;;9.47;2.00;;;7.30;99.90;;;;;;5092672;28;20589;-78
2024/01/05 06:36:34;;;;;;;7.47;2.00;;;7.30;99.90;;;;;;5092579;28;20182;-78
2024/01/05 06:38:59;;;;;;;13.33;2.47;;;7.30;99.90;;;;;;5092640;28;20182;-77
2024/01/05 06:41:25;;;;;;;12.33;2.17;;;7.30;99.90;;;;;;5096041;28;20200;-78
2024/01/05 06:43:50;;;;;;;9.00;2.47;;;7.40;99.90;;;;;;5091482;28;20693;-77
2024/01/05 06:46:16;;;;;;;9.47;2.30;;;7.40;99.90;;;;;;5091495;28;20178;-77
2024/01/05 06:48:41;;;;;;;11.37;2.30;;;7.40;99.90;;;;;;5090774;28;20181;-76
2024/01/05 06:51:07;;;;;;;8.77;2.13;;;7.40;99.90;;;;;;5091917;28;20166;-77
2024/01/05 06:53:32;;;;;;;5.93;1.80;;;7.50;99.90;;;;;;5105243;28;20186;-77
2024/01/05 06:55:58;;;;;;;7.70;1.80;;;7.50;99.90;;;;;;5100037;28;20673;-80
2024/01/05 06:58:23;;;;;;;7.37;1.87;;;7.70;99.90;;;;;;5093053;28;20672;-77
2024/01/05 07:00:49;;;;;;;7.63;1.93;;;7.60;99.90;;;;;;5091218;28;20551;-76
2024/01/05 07:03:15;;;;;;;10.70;1.73;;;7.60;99.90;;;;;;5091874;28;20711;-77
2024/01/05 07:05:40;;;;;;;11.67;2.30;;;7.60;99.90;;;;;;5091769;28;20209;-77
2024/01/05 07:08:09;;;;;;;7.27;1.73;;;7.70;99.90;;;;;;5092128;28;20209;-77
2024/01/05 07:10:35;;;;;;;6.40;1.93;;;7.60;99.90;;;;;;5091559;28;20253;-76
2024/01/05 07:13:00;;;;;;;8.07;2.07;;;7.70;99.90;;;;;;5079943;28;20210;-77
2024/01/05 07:15:26;;;;;;;4.70;1.27;;;7.80;99.90;;;;;;5072306;28;20276;-78
2024/01/05 07:17:51;;;;;;;6.03;1.57;;;7.80;99.90;;;;;;5091897;28;20201;-77
2024/01/05 07:20:17;;;;;;;7.10;1.80;;;7.80;99.90;;;;;;5098885;28;20605;-77
2024/01/05 07:22:43;;;;;;;8.17;1.77;;;7.80;99.90;;;;;;5093207;28;20657;-76
2024/01/05 07:25:11;;;;;;;4.73;1.70;;;7.80;99.90;;;;;;5091642;28;20202;-77
2024/01/05 07:27:37;;;;;;;6.23;1.60;;;7.80;99.90;;;;;;5092137;28;20213;-77
2024/01/05 07:30:04;;;;;;;6.93;1.77;;;7.80;99.90;;;;;;5089987;28;20646;-77
2024/01/05 07:32:30;;;;;;;6.10;1.40;;;7.80;99.90;;;;;;5092698;28;20649;-77
2024/01/05 07:34:55;;;;;;;6.73;1.80;;;7.90;99.90;;;;;;5092075;28;20250;-77
2024/01/05 07:37:22;;;;;;;5.63;1.80;;;7.90;99.90;;;;;;5091089;28;20261;-77
2024/01/05 07:39:47;;;;;;;6.47;1.87;;;7.90;99.90;;;;;;5090527;28;20182;-77
2024/01/05 07:42:13;;;;;;;7.90;1.70;;;7.90;99.90;;;;;;5090781;28;20683;-77
2024/01/05 07:44:39;;;;;;;7.20;1.70;;;7.90;99.90;;;;;;5090426;28;20198;-77
2024/01/05 07:47:04;;;;;;;8.20;1.87;;;7.90;99.90;;;;;;5091314;28;20182;-77
2024/01/05 07:49:30;;;;;;;10.53;1.83;;;7.90;99.90;;;;;;5082666;28;20674;-77
2024/01/05 07:51:56;;;;;;;9.07;2.10;;;7.90;99.90;;;;;;5091021;28;20206;-77
2024/01/05 07:54:21;;;;;;;9.60;1.67;;;7.90;99.90;;;;;;5091389;28;20202;-76
2024/01/05 07:56:47;;;;;;;5.97;1.63;;;7.90;99.90;;;;;;5089556;28;20185;-78
2024/01/05 07:59:14;;;;;;;4.60;1.50;;;7.90;99.90;;;;;;5092492;28;20186;-77
2024/01/05 08:01:40;;;;;;;6.00;1.40;;;7.90;99.90;;;;;;5090247;28;20212;-76
2024/01/05 08:04:05;;;;;;;7.00;1.70;;;7.90;99.90;;;;;;5091989;28;20200;-76
2024/01/05 08:06:31;;;;;;;7.57;1.97;;;7.90;99.90;;;;;;5091222;28;20186;-76
2024/01/05 08:08:56;;;;;;;7.63;1.93;;;7.80;99.90;;;;;;5090454;28;20243;-76
2024/01/05 08:11:22;;;;;;;3.37;1.50;;;7.80;99.90;;;;;;5089733;28;20174;-76
2024/01/05 08:13:47;;;;;;;7.10;1.40;;;7.90;99.90;;;;;;5093111;28;20196;-76
2024/01/05 08:16:13;;;;;;;7.07;1.43;;;7.90;99.90;;;;;;5094242;28;20178;-76
2024/01/05 08:18:40;;;;;;;6.20;1.67;;;7.80;99.90;;;;;;5095565;28;20654;-77
2024/01/05 08:21:05;;;;;;;3.83;1.30;;;7.80;99.90;;;;;;5091665;28;20186;-78
2024/01/05 08:23:34;;;;;;;5.20;1.70;;;7.90;99.90;;;;;;5098956;28;20352;-77
2024/01/05 08:26:00;;;;;;;5.67;1.50;;;7.90;99.90;;;;;;5097794;28;20657;-77
2024/01/05 08:28:26;;;;;;;6.07;1.23;;;7.90;99.90;;;;;;5097808;28;20193;-77
2024/01/05 08:30:52;;;;;;;4.10;1.23;;;8.00;99.90;;;;;;5094764;28;20174;-77
2024/01/05 08:33:17;;;;;;;4.10;1.50;;;8.00;99.90;;;;;;5093937;28;20202;-77
2024/01/05 08:35:43;;;;;;;2.43;1.13;;;8.00;99.90;;;;;;5095672;28;20243;-78
2024/01/05 08:38:09;;;;;;;3.17;1.00;;;8.10;99.90;;;;;;5094047;28;20178;-77
2024/01/05 08:40:34;;;;;;;2.43;0.87;;;8.10;99.90;;;;;;5094462;28;20178;-77
2024/01/05 08:43:00;;;;;;;3.93;1.37;;;8.10;99.90;;;;;;5095812;28;20202;-77
2024/01/05 08:45:27;;;;;;;2.97;0.77;;;8.10;99.90;;;;;;5093604;28;20190;-77
2024/01/05 08:47:53;;;;;;;4.10;1.00;;;8.10;99.90;;;;;;5096219;28;20181;-77
2024/01/05 08:50:19;;;;;;;1.70;0.97;;;8.20;99.90;;;;;;5094094;28;20642;-77
2024/01/05 08:52:45;;;;;;;3.40;0.80;;;8.20;99.90;;;;;;5091696;28;20178;-77
2024/01/05 08:55:14;;;;;;;1.33;0.60;;;8.30;99.90;;;;;;5094560;28;20202;-77
2024/01/05 08:57:39;;;;;;;2.63;0.53;;;8.30;99.90;;;;;;5098809;28;20190;-77
2024/01/05 09:00:09;;;;;;;0.93;0.50;;;8.40;99.90;;;;;;5097840;28;20186;-77
2024/01/05 09:02:35;;;;;;;2.27;0.70;;;8.40;99.90;;;;;;5092676;28;20270;-78
2024/01/05 09:05:03;;;;;;;2.83;0.70;;;8.40;99.90;;;;;;5094151;28;20220;-77
2024/01/05 09:07:30;;;;;;;3.27;1.03;;;8.40;99.90;;;;;;5108705;27;20663;-77
2024/01/05 09:09:55;;;;;;;0.93;0.50;;;8.40;99.90;;;;;;5095436;28;20635;-77
2024/01/05 09:12:21;;;;;;;1.20;0.40;;;8.40;99.90;;;;;;5095639;28;20193;-77
2024/01/05 09:14:47;;;;;;;0.70;0.50;;;8.40;99.90;;;;;;5094045;28;20186;-76
2024/01/05 09:17:12;;;;;;;0.87;0.40;;;8.40;99.90;;;;;;5095513;28;20217;-77
2024/01/05 09:19:38;;;;;;;0.97;0.40;;;8.50;99.90;;;;;;5095533;28;20204;-77
2024/01/05 09:22:04;;;;;;;0.73;0.40;;;8.50;99.90;;;;;;5093931;28;20167;-77
2024/01/05 09:24:29;;;;;;;1.30;0.40;;;8.40;99.90;;;;;;5095268;28;20209;-77
2024/01/05 09:26:55;;;;;;;1.23;0.50;;;8.40;99.90;;;;;;5094253;28;20175;-77
2024/01/05 09:29:21;;;;;;;2.87;0.60;;;8.40;99.90;;;;;;5095422;28;20170;-77
2024/01/05 09:31:47;;;;;;;1.03;0.40;;;8.30;99.90;;;;;;5095499;28;20173;-77
2024/01/05 09:34:13;;;;;;;0.63;0.37;;;8.30;99.90;;;;;;5094216;28;20743;-77
2024/01/05 09:36:41;;;;;;;1.53;0.40;;;8.30;99.90;;;;;;5095669;28;20174;-77
2024/01/05 09:39:07;;;;;;;1.23;0.30;;;8.30;99.90;;;;;;5094028;28;20603;-77
2024/01/05 09:41:33;;;;;;;2.83;0.40;;;8.20;99.90;;;;;;5094256;28;20174;-77
2024/01/05 09:44:00;;;;;;;0.40;0.30;;;8.30;99.90;;;;;;5094895;28;20275;-77
2024/01/05 09:46:28;;;;;;;1.57;0.50;;;8.30;99.90;;;;;;5094738;28;20210;-76
2024/01/05 09:48:55;;;;;;;1.67;0.50;;;8.20;99.90;;;;;;5094608;28;20216;-77
2024/01/05 09:51:21;;;;;;;0.63;0.53;;;8.30;99.90;;;;;;5094505;28;20209;-77
2024/01/05 09:53:46;;;;;;;0.83;0.40;;;8.30;99.90;;;;;;5094473;28;20178;-77
2024/01/05 09:56:14;;;;;;;2.63;0.50;;;8.30;99.90;;;;;;5094437;28;20190;-77
2024/01/05 09:58:40;;;;;;;1.00;0.40;;;8.20;99.90;;;;;;5093161;28;20178;-77
2024/01/05 10:01:14;;;;;;;1.93;0.50;;;8.20;99.90;;;;;;5094447;28;20175;-76
2024/01/05 10:03:41;;;;;;;3.77;0.57;;;8.20;99.90;;;;;;5094102;28;20318;-76
2024/01/05 10:06:06;;;;;;;1.50;0.60;;;8.20;99.90;;;;;;5093995;28;20478;-76
2024/01/05 10:08:32;;;;;;;1.20;0.50;;;8.20;99.90;;;;;;5093996;28;20223;-76
2024/01/05 10:11:02;;;;;;;1.20;0.40;;;8.10;99.90;;;;;;5092623;28;20166;-76
2024/01/05 10:13:28;;;;;;;1.73;0.70;;;8.10;99.90;;;;;;5094314;28;20170;-76
2024/01/05 10:16:00;;;;;;;0.77;0.40;;;8.20;99.90;;;;;;5093902;28;20190;-76
2024/01/05 10:18:28;;;;;;;2.77;0.70;;;8.20;99.90;;;;;;5092851;28;20602;-77
2024/01/05 10:20:55;;;;;;;1.03;0.50;;;8.20;99.90;;;;;;5092617;28;20287;-76
2024/01/05 10:23:21;;;;;;;0.57;0.50;;;8.10;99.90;;;;;;5093793;28;20287;-74
2024/01/05 10:25:47;;;;;;;0.63;0.40;;;8.10;99.90;;;;;;5096362;28;20621;-76
2024/01/05 10:28:29;;;;;;;1.20;0.43;;;8.10;99.90;;;;;;5094091;28;20646;-75
2024/01/05 10:31:10;;;;;;;1.73;0.70;;;8.10;99.90;;;;;;5094169;28;20158;-76
2024/01/05 10:33:48;;;;;;;1.13;0.70;;;8.20;99.90;;;;;;5093411;28;20216;-75
2024/01/05 10:36:17;;;;;;;1.13;0.60;;;8.20;99.90;;;;;;5091641;28;20182;-75
2024/01/05 10:38:44;;;;;;;1.43;0.60;;;8.20;99.90;;;;;;5093819;28;20193;-76
2024/01/05 10:41:09;;;;;;;1.63;0.60;;;8.20;99.90;;;;;;5093302;28;20170;-75
2024/01/05 10:43:36;;;;;;;0.50;0.40;;;8.10;99.90;;;;;;5091676;28;20504;-76
2024/01/05 10:46:03;;;;;;;1.53;0.50;;;8.10;99.90;;;;;;5093231;28;20534;-75
2024/01/05 10:48:31;;;;;;;1.73;0.63;;;8.10;99.90;;;;;;5093435;28;20246;-76
2024/01/05 10:50:57;;;;;;;2.43;0.90;;;8.10;99.90;;;;;;5093159;28;20657;-76
2024/01/05 10:53:23;;;;;;;1.27;0.60;;;8.20;99.90;;;;;;5093068;28;20293;-75
2024/01/05 10:55:48;;;;;;;1.60;0.60;;;8.20;99.90;;;;;;5092917;28;20190;-75
2024/01/05 10:58:14;;;;;;;0.90;0.50;;;8.20;99.90;;;;;;5091593;28;20703;-76
2024/01/05 11:00:40;;;;;;;0.70;0.43;;;8.20;99.90;;;;;;5093017;28;20691;-75
2024/01/05 11:03:17;;;;;;;3.73;1.00;;;8.20;99.90;;;;;;5093041;28;20229;-76
2024/01/05 11:05:44;;;;;;;2.57;0.67;;;8.20;99.90;;;;;;5093046;28;20186;-76
2024/01/05 11:08:25;;;;;;;0.90;0.50;;;8.20;99.90;;;;;;5091550;28;20174;-75
2024/01/05 11:10:57;;;;;;;2.07;0.60;;;8.20;99.90;;;;;;5093129;28;20166;-77
2024/01/05 11:13:29;;;;;;;3.07;0.83;;;8.20;99.90;;;;;;5091658;28;20568;-76
2024/01/05 11:15:57;;;;;;;2.57;0.60;;;8.20;99.90;;;;;;5090362;28;20244;-77
2024/01/05 11:18:49;;;;;;;1.97;0.70;;;8.20;99.90;;;;;;5092880;28;20515;-76
2024/01/05 11:21:22;;;;;;;1.20;0.63;;;8.20;99.90;;;;;;5091442;28;20638;-76
2024/01/05 11:23:49;;;;;;;1.57;0.60;;;8.20;99.90;;;;;;5092701;28;20185;-77
2024/01/05 11:26:35;;;;;;;1.33;0.50;;;8.20;99.90;;;;;;5091132;28;20166;-76
2024/01/05 11:29:04;;;;;;;5.97;0.80;;;8.30;99.90;;;;;;5091280;28;20194;-77
2024/01/05 11:31:45;;;;;;;2.60;0.90;;;8.30;99.90;;;;;;5091321;28;20166;-76
2024/01/05 11:34:31;;;;;;;3.23;0.77;;;8.30;99.90;;;;;;5092343;28;20695;-76
2024/01/05 11:36:57;;;;;;;1.53;0.53;;;8.30;99.90;;;;;;5099703;28;20186;-76
2024/01/05 11:39:41;;;;;;;3.90;0.87;;;8.20;99.90;;;;;;5099950;28;20186;-76
2024/01/05 11:42:07;;;;;;;1.97;0.67;;;8.20;99.90;;;;;;5091266;28;20169;-76
2024/01/05 11:44:34;;;;;;;3.53;0.80;;;8.20;99.90;;;;;;5090891;28;20605;-76
2024/01/05 11:47:02;;;;;;;2.50;0.80;;;8.20;99.90;;;;;;5089384;28;20297;-77
2024/01/05 11:49:41;;;;;;;1.83;0.70;;;8.20;99.90;;;;;;5097958;28;20176;-76
2024/01/05 11:52:07;;;;;;;1.83;0.70;;;8.10;99.90;;;;;;5097445;28;20161;-76
2024/01/05 11:54:34;;;;;;;1.57;0.60;;;8.10;99.90;;;;;;5098115;28;20189;-77
2024/01/05 11:57:01;;;;;;;3.77;0.80;;;8.10;99.90;;;;;;5096840;28;20220;-77
2024/01/05 11:59:27;;;;;;;1.80;0.70;;;8.10;99.90;;;;;;5097742;28;20683;-77
2024/01/05 12:01:53;;;;;;;3.00;0.77;;;8.10;99.90;;;;;;5097673;28;20170;-77
2024/01/05 12:04:20;;;;;;;4.20;0.90;;;8.10;99.90;;;;;;5097648;28;20284;-77
2024/01/05 12:06:54;;;;;;;2.53;0.70;;;8.10;99.90;;;;;;5099484;28;20223;-75
2024/01/05 12:09:20;;;;;;;3.80;0.87;;;8.10;99.90;;;;;;5101340;28;20166;-79
2024/01/05 12:11:47;;;;;;;2.93;0.70;;;8.10;99.90;;;;;;5100424;28;20182;-79
2024/01/05 12:14:25;;;;;;;3.20;0.77;;;8.00;99.90;;;;;;5099774;28;20281;-77
2024/01/05 12:16:51;;;;;;;4.40;0.70;;;8.00;99.90;;;;;;5100906;28;20165;-77
2024/01/05 12:19:22;;;;;;;1.33;0.60;;;8.00;99.90;;;;;;5100699;28;20169;-77
2024/01/05 12:21:52;;;;;;;3.90;0.90;;;8.00;99.90;;;;;;5097899;28;20170;-76
2024/01/05 12:24:18;;;;;;;2.47;0.90;;;8.00;99.90;;;;;;5098263;28;20291;-77
2024/01/05 12:26:44;;;;;;;3.00;0.80;;;8.00;99.90;;;;;;5098589;28;20578;-78
2024/01/05 12:29:11;;;;;;;1.67;0.80;;;8.00;99.90;;;;;;5100895;28;20170;-78
2024/01/05 12:31:38;;;;;;;2.97;0.80;;;8.00;99.90;;;;;;5100827;28;20518;-77
2024/01/05 12:34:04;;;;;;;3.23;0.90;;;8.00;99.90;;;;;;5100420;28;20534;-78
2024/01/05 12:36:31;;;;;;;2.73;0.83;;;8.00;99.90;;;;;;5100286;28;20177;-78
2024/01/05 12:39:08;;;;;;;1.83;0.70;;;8.00;99.90;;;;;;5100031;28;20239;-77
2024/01/05 12:41:34;;;;;;;2.93;0.90;;;8.00;99.90;;;;;;5100971;28;20575;-78
2024/01/05 12:43:59;;;;;;;6.23;1.27;;;8.00;99.90;;;;;;5099461;28;20221;-78
2024/01/05 12:46:25;;;;;;;2.20;0.70;;;7.90;99.90;;;;;;5100141;28;20185;-78
2024/01/05 12:48:51;;;;;;;2.27;0.67;;;7.90;99.90;;;;;;5098825;28;20253;-78
2024/01/05 12:51:22;;;;;;;3.67;0.83;;;7.80;99.90;;;;;;5101585;28;20573;-78